sensor_id;sensor_type;location;lat;lon;timestamp;temperature;humidity
30308;DHT22;17114;52.314;8.910;2022-07-17T00:00:23;10.40;99.90
30308;DHT22;17114;52.314;8.910;2022-07-17T00:02:50;10.30;99.90
30308;DHT22;17114;52.314;8.910;2022-07-17T00:05:18;10.30;99.90
30308;DHT22;17114;52.314;8.910;2022-07-17T00:07:45;10.30;99.90
30308;DHT22;17114;52.314;8.910;2022-07-17T00:10:15;10.30;99.90
30308;DHT22;17114;52.314;8.910;2022-07-17T00:12:43;10.30;99.90
30308;DHT22;17114;52.314;8.910;2022-07-17T00:15:10;10.20;99.90
30308;DHT22;17114;52.314;8.910;2022-07-17T00:17:37;10.20;99.90
30308;DHT22;17114;52.314;8.910;2022-07-17T00:20:06;10.20;99.90
30308;DHT22;17114;52.314;8.910;2022-07-17T00:22:34;10.20;99.90
30308;DHT22;17114;52.314;8.910;2022-07-17T00:25:01;10.20;99.90
30308;DHT22;17114;52.314;8.910;2022-07-17T00:27:29;10.20;99.90
30308;DHT22;17114;52.314;8.910;2022-07-17T00:29:56;10.20;99.90
30308;DHT22;17114;52.314;8.910;2022-07-17T00:32:23;10.20;99.90
30308;DHT22;17114;52.314;8.910;2022-07-17T00:34:51;10.20;99.90
30308;DHT22;17114;52.314;8.910;2022-07-17T00:37:18;10.10;99.90
30308;DHT22;17114;52.314;8.910;2022-07-17T00:39:45;10.10;99.90
30308;DHT22;17114;52.314;8.910;2022-07-17T00:42:13;10.00;99.90
30308;DHT22;17114;52.314;8.910;2022-07-17T00:44:42;10.00;99.90
30308;DHT22;17114;52.314;8.910;2022-07-17T00:47:14;9.90;99.90
30308;DHT22;17114;52.314;8.910;2022-07-17T00:49:43;9.90;99.90
30308;DHT22;17114;52.314;8.910;2022-07-17T00:52:12;9.90;99.90
30308;DHT22;17114;52.314;8.910;2022-07-17T00:54:41;9.80;99.90
30308;DHT22;17114;52.314;8.910;2022-07-17T00:57:11;9.80;99.90
30308;DHT22;17114;52.314;8.910;2022-07-17T00:59:38;9.80;99.90
30308;DHT22;17114;52.314;8.910;2022-07-17T01:02:09;9.70;99.90
30308;DHT22;17114;52.314;8.910;2022-07-17T01:04:37;9.70;99.90
30308;DHT22;17114;52.314;8.910;2022-07-17T01:07:05;9.60;99.90
30308;DHT22;17114;52.314;8.910;2022-07-17T01:09:33;9.60;99.90
30308;DHT22;17114;52.314;8.910;2022-07-17T01:12:01;9.50;99.90
30308;DHT22;17114;52.314;8.910;2022-07-17T01:14:28;9.50;99.90
30308;DHT22;17114;52.314;8.910;2022-07-17T01:16:55;9.50;99.90
30308;DHT22;17114;52.314;8.910;2022-07-17T01:19:22;9.40;99.90
30308;DHT22;17114;52.314;8.910;2022-07-17T01:21:50;9.40;99.90
30308;DHT22;17114;52.314;8.910;2022-07-17T01:24:17;9.30;99.90
30308;DHT22;17114;52.314;8.910;2022-07-17T01:26:48;9.30;99.90
30308;DHT22;17114;52.314;8.910;2022-07-17T01:29:16;9.30;99.90
30308;DHT22;17114;52.314;8.910;2022-07-17T01:31:44;9.30;99.90
30308;DHT22;17114;52.314;8.910;2022-07-17T01:34:12;9.30;99.90
30308;DHT22;17114;52.314;8.910;2022-07-17T01:36:42;9.20;99.90
30308;DHT22;17114;52.314;8.910;2022-07-17T01:39:09;9.20;99.90
30308;DHT22;17114;52.314;8.910;2022-07-17T01:41:37;9.10;99.90
30308;DHT22;17114;52.314;8.910;2022-07-17T01:44:04;9.10;99.90
30308;DHT22;17114;52.314;8.910;2022-07-17T01:46:32;9.10;99.90
30308;DHT22;17114;52.314;8.910;2022-07-17T01:48:59;9.10;99.90
30308;DHT22;17114;52.314;8.910;2022-07-17T01:51:30;9.00;99.90
30308;DHT22;17114;52.314;8.910;2022-07-17T01:53:58;9.00;99.90
30308;DHT22;17114;52.314;8.910;2022-07-17T01:56:25;9.00;99.90
30308;DHT22;17114;52.314;8.910;2022-07-17T01:58:52;8.90;99.90
30308;DHT22;17114;52.314;8.910;2022-07-17T02:01:19;8.90;99.90
30308;DHT22;17114;52.314;8.910;2022-07-17T02:03:47;8.90;99.90
30308;DHT22;17114;52.314;8.910;2022-07-17T02:06:14;8.80;99.90
30308;DHT22;17114;52.314;8.910;2022-07-17T02:08:40;8.80;99.90
30308;DHT22;17114;52.314;8.910;2022-07-17T02:11:08;8.70;99.90
30308;DHT22;17114;52.314;8.910;2022-07-17T02:13:35;8.70;99.90
30308;DHT22;17114;52.314;8.910;2022-07-17T02:16:02;8.70;99.90
30308;DHT22;17114;52.314;8.910;2022-07-17T02:18:30;8.70;99.90
30308;DHT22;17114;52.314;8.910;2022-07-17T02:20:57;8.70;99.90
30308;DHT22;17114;52.314;8.910;2022-07-17T02:23:24;8.60;99.90
30308;DHT22;17114;52.314;8.910;2022-07-17T02:25:51;8.60;99.90
30308;DHT22;17114;52.314;8.910;2022-07-17T02:28:19;8.60;99.90
30308;DHT22;17114;52.314;8.910;2022-07-17T02:30:46;8.60;99.90
30308;DHT22;17114;52.314;8.910;2022-07-17T02:33:14;8.50;99.90
30308;DHT22;17114;52.314;8.910;2022-07-17T02:35:41;8.60;99.90
30308;DHT22;17114;52.314;8.910;2022-07-17T02:38:08;8.50;99.90
30308;DHT22;17114;52.314;8.910;2022-07-17T02:40:35;8.50;99.90
30308;DHT22;17114;52.314;8.910;2022-07-17T02:43:02;8.50;99.90
30308;DHT22;17114;52.314;8.910;2022-07-17T02:45:29;8.40;99.90
30308;DHT22;17114;52.314;8.910;2022-07-17T02:47:56;8.40;99.90
30308;DHT22;17114;52.314;8.910;2022-07-17T02:50:23;8.40;99.90
30308;DHT22;17114;52.314;8.910;2022-07-17T02:52:50;8.40;99.90
30308;DHT22;17114;52.314;8.910;2022-07-17T02:55:18;8.40;99.90
30308;DHT22;17114;52.314;8.910;2022-07-17T02:57:45;8.30;99.90
30308;DHT22;17114;52.314;8.910;2022-07-17T03:00:19;8.30;99.90
30308;DHT22;17114;52.314;8.910;2022-07-17T03:02:47;8.30;99.90
30308;DHT22;17114;52.314;8.910;2022-07-17T03:05:15;8.30;99.90
30308;DHT22;17114;52.314;8.910;2022-07-17T03:07:43;8.30;99.90
30308;DHT22;17114;52.314;8.910;2022-07-17T03:10:14;8.30;99.90
30308;DHT22;17114;52.314;8.910;2022-07-17T03:12:42;8.20;99.90
30308;DHT22;17114;52.314;8.910;2022-07-17T03:15:09;8.20;99.90
30308;DHT22;17114;52.314;8.910;2022-07-17T03:17:39;8.20;99.90
30308;DHT22;17114;52.314;8.910;2022-07-17T03:20:07;8.20;99.90
30308;DHT22;17114;52.314;8.910;2022-07-17T03:22:35;8.20;99.90
30308;DHT22;17114;52.314;8.910;2022-07-17T03:25:02;8.10;99.90
30308;DHT22;17114;52.314;8.910;2022-07-17T03:27:31;8.10;99.90
30308;DHT22;17114;52.314;8.910;2022-07-17T03:29:58;8.10;99.90
30308;DHT22;17114;52.314;8.910;2022-07-17T03:32:25;8.10;99.90
30308;DHT22;17114;52.314;8.910;2022-07-17T03:34:52;8.10;99.90
30308;DHT22;17114;52.314;8.910;2022-07-17T03:37:19;8.20;99.90
30308;DHT22;17114;52.314;8.910;2022-07-17T03:39:46;8.20;99.90
30308;DHT22;17114;52.314;8.910;2022-07-17T03:42:13;8.20;99.90
30308;DHT22;17114;52.314;8.910;2022-07-17T03:44:40;8.30;99.90
30308;DHT22;17114;52.314;8.910;2022-07-17T03:47:07;8.30;99.90
30308;DHT22;17114;52.314;8.910;2022-07-17T03:49:34;8.40;99.90
30308;DHT22;17114;52.314;8.910;2022-07-17T03:52:01;8.50;99.90
30308;DHT22;17114;52.314;8.910;2022-07-17T03:54:28;8.50;99.90
30308;DHT22;17114;52.314;8.910;2022-07-17T03:56:55;8.60;99.90
30308;DHT22;17114;52.314;8.910;2022-07-17T03:59:22;8.70;99.90
30308;DHT22;17114;52.314;8.910;2022-07-17T04:01:49;8.80;99.90
30308;DHT22;17114;52.314;8.910;2022-07-17T04:04:17;8.90;99.90
30308;DHT22;17114;52.314;8.910;2022-07-17T04:06:44;8.90;99.90
30308;DHT22;17114;52.314;8.910;2022-07-17T04:09:11;9.00;99.90
30308;DHT22;17114;52.314;8.910;2022-07-17T04:11:38;9.10;99.90
30308;DHT22;17114;52.314;8.910;2022-07-17T04:14:05;9.10;99.90
30308;DHT22;17114;52.314;8.910;2022-07-17T04:16:32;9.20;99.90
30308;DHT22;17114;52.314;8.910;2022-07-17T04:18:59;9.20;99.90
30308;DHT22;17114;52.314;8.910;2022-07-17T04:21:26;9.30;99.90
30308;DHT22;17114;52.314;8.910;2022-07-17T04:23:53;9.40;99.90
30308;DHT22;17114;52.314;8.910;2022-07-17T04:26:20;9.40;99.90
30308;DHT22;17114;52.314;8.910;2022-07-17T04:28:47;9.60;99.90
30308;DHT22;17114;52.314;8.910;2022-07-17T04:31:14;9.60;99.90
30308;DHT22;17114;52.314;8.910;2022-07-17T04:33:41;9.80;99.90
30308;DHT22;17114;52.314;8.910;2022-07-17T04:36:09;9.90;99.90
30308;DHT22;17114;52.314;8.910;2022-07-17T04:38:36;10.00;99.90
30308;DHT22;17114;52.314;8.910;2022-07-17T04:41:03;10.10;99.90
30308;DHT22;17114;52.314;8.910;2022-07-17T04:43:30;10.10;99.90
30308;DHT22;17114;52.314;8.910;2022-07-17T04:45:57;10.00;99.90
30308;DHT22;17114;52.314;8.910;2022-07-17T04:48:24;10.20;99.90
30308;DHT22;17114;52.314;8.910;2022-07-17T04:50:51;10.80;99.90
30308;DHT22;17114;52.314;8.910;2022-07-17T04:53:18;11.50;99.90
30308;DHT22;17114;52.314;8.910;2022-07-17T04:55:50;12.30;99.90
30308;DHT22;17114;52.314;8.910;2022-07-17T04:58:20;13.00;99.90
30308;DHT22;17114;52.314;8.910;2022-07-17T05:00:47;13.80;99.90
30308;DHT22;17114;52.314;8.910;2022-07-17T05:03:14;14.50;99.90
30308;DHT22;17114;52.314;8.910;2022-07-17T05:05:42;15.20;99.90
30308;DHT22;17114;52.314;8.910;2022-07-17T05:08:09;15.90;99.90
30308;DHT22;17114;52.314;8.910;2022-07-17T05:10:36;16.30;99.90
30308;DHT22;17114;52.314;8.910;2022-07-17T05:13:03;16.70;99.90
30308;DHT22;17114;52.314;8.910;2022-07-17T05:15:30;17.00;99.90
30308;DHT22;17114;52.314;8.910;2022-07-17T05:18:06;17.40;99.90
30308;DHT22;17114;52.314;8.910;2022-07-17T05:20:33;17.70;99.90
30308;DHT22;17114;52.314;8.910;2022-07-17T05:22:59;18.10;99.90
30308;DHT22;17114;52.314;8.910;2022-07-17T05:25:26;18.40;99.90
30308;DHT22;17114;52.314;8.910;2022-07-17T05:27:53;18.80;99.90
30308;DHT22;17114;52.314;8.910;2022-07-17T05:30:20;19.20;99.90
30308;DHT22;17114;52.314;8.910;2022-07-17T05:32:47;19.40;99.90
30308;DHT22;17114;52.314;8.910;2022-07-17T05:35:14;19.50;99.90
30308;DHT22;17114;52.314;8.910;2022-07-17T05:37:41;19.80;99.90
30308;DHT22;17114;52.314;8.910;2022-07-17T05:40:09;20.00;99.90
30308;DHT22;17114;52.314;8.910;2022-07-17T05:42:36;19.70;99.90
30308;DHT22;17114;52.314;8.910;2022-07-17T05:45:04;19.40;99.90
30308;DHT22;17114;52.314;8.910;2022-07-17T05:47:31;19.10;99.90
30308;DHT22;17114;52.314;8.910;2022-07-17T05:49:58;18.60;99.90
30308;DHT22;17114;52.314;8.910;2022-07-17T05:52:25;18.20;99.90
30308;DHT22;17114;52.314;8.910;2022-07-17T05:54:52;18.00;99.90
30308;DHT22;17114;52.314;8.910;2022-07-17T05:57:19;17.70;99.90
30308;DHT22;17114;52.314;8.910;2022-07-17T05:59:46;17.50;99.90
30308;DHT22;17114;52.314;8.910;2022-07-17T06:02:13;17.30;99.90
30308;DHT22;17114;52.314;8.910;2022-07-17T06:04:40;17.20;99.90
30308;DHT22;17114;52.314;8.910;2022-07-17T06:07:07;17.00;99.90
30308;DHT22;17114;52.314;8.910;2022-07-17T06:09:34;17.00;99.90
30308;DHT22;17114;52.314;8.910;2022-07-17T06:12:01;17.00;99.90
30308;DHT22;17114;52.314;8.910;2022-07-17T06:14:28;16.90;99.90
30308;DHT22;17114;52.314;8.910;2022-07-17T06:16:55;17.00;99.90
30308;DHT22;17114;52.314;8.910;2022-07-17T06:19:22;17.00;99.90
30308;DHT22;17114;52.314;8.910;2022-07-17T06:21:49;17.10;99.90
30308;DHT22;17114;52.314;8.910;2022-07-17T06:24:16;17.40;99.90
30308;DHT22;17114;52.314;8.910;2022-07-17T06:26:43;17.60;99.90
30308;DHT22;17114;52.314;8.910;2022-07-17T06:29:10;17.70;99.90
30308;DHT22;17114;52.314;8.910;2022-07-17T06:31:37;18.00;99.90
30308;DHT22;17114;52.314;8.910;2022-07-17T06:34:04;18.60;99.90
30308;DHT22;17114;52.314;8.910;2022-07-17T06:36:31;19.30;99.90
30308;DHT22;17114;52.314;8.910;2022-07-17T06:38:58;20.20;99.90
30308;DHT22;17114;52.314;8.910;2022-07-17T06:41:25;21.00;99.90
30308;DHT22;17114;52.314;8.910;2022-07-17T06:43:53;21.30;99.90
30308;DHT22;17114;52.314;8.910;2022-07-17T06:46:20;21.50;99.90
30308;DHT22;17114;52.314;8.910;2022-07-17T06:48:47;21.10;99.90
30308;DHT22;17114;52.314;8.910;2022-07-17T06:51:18;20.90;99.90
30308;DHT22;17114;52.314;8.910;2022-07-17T06:53:45;20.70;99.90
30308;DHT22;17114;52.314;8.910;2022-07-17T06:56:12;20.50;99.90
30308;DHT22;17114;52.314;8.910;2022-07-17T06:58:39;20.20;99.90
30308;DHT22;17114;52.314;8.910;2022-07-17T07:01:07;20.20;99.90
30308;DHT22;17114;52.314;8.910;2022-07-17T07:03:34;20.20;99.90
30308;DHT22;17114;52.314;8.910;2022-07-17T07:06:01;20.30;99.90
30308;DHT22;17114;52.314;8.910;2022-07-17T07:08:28;20.50;99.90
30308;DHT22;17114;52.314;8.910;2022-07-17T07:10:55;21.10;99.90
30308;DHT22;17114;52.314;8.910;2022-07-17T07:13:23;21.70;99.90
30308;DHT22;17114;52.314;8.910;2022-07-17T07:15:50;22.10;99.90
30308;DHT22;17114;52.314;8.910;2022-07-17T07:18:18;22.90;99.90
30308;DHT22;17114;52.314;8.910;2022-07-17T07:20:45;23.00;99.90
30308;DHT22;17114;52.314;8.910;2022-07-17T07:23:12;23.60;99.90
30308;DHT22;17114;52.314;8.910;2022-07-17T07:25:39;23.80;99.90
30308;DHT22;17114;52.314;8.910;2022-07-17T07:28:06;23.90;99.90
30308;DHT22;17114;52.314;8.910;2022-07-17T07:30:33;24.30;99.90
30308;DHT22;17114;52.314;8.910;2022-07-17T07:33:00;24.70;99.90
30308;DHT22;17114;52.314;8.910;2022-07-17T07:35:27;25.30;99.90
30308;DHT22;17114;52.314;8.910;2022-07-17T07:37:55;25.60;99.90
30308;DHT22;17114;52.314;8.910;2022-07-17T07:40:22;25.20;99.90
30308;DHT22;17114;52.314;8.910;2022-07-17T07:42:49;25.20;99.90
30308;DHT22;17114;52.314;8.910;2022-07-17T07:45:16;25.70;98.70
30308;DHT22;17114;52.314;8.910;2022-07-17T07:47:45;25.90;98.70
30308;DHT22;17114;52.314;8.910;2022-07-17T07:50:14;25.60;98.40
30308;DHT22;17114;52.314;8.910;2022-07-17T07:52:41;25.30;99.60
30308;DHT22;17114;52.314;8.910;2022-07-17T07:55:10;25.30;98.00
30308;DHT22;17114;52.314;8.910;2022-07-17T07:57:46;24.90;99.10
30308;DHT22;17114;52.314;8.910;2022-07-17T08:00:14;25.00;99.90
30308;DHT22;17114;52.314;8.910;2022-07-17T08:02:42;25.40;99.80
30308;DHT22;17114;52.314;8.910;2022-07-17T08:05:09;25.90;98.90
30308;DHT22;17114;52.314;8.910;2022-07-17T08:07:36;26.20;97.60
30308;DHT22;17114;52.314;8.910;2022-07-17T08:10:04;26.00;96.80
30308;DHT22;17114;52.314;8.910;2022-07-17T08:12:32;25.70;97.30
30308;DHT22;17114;52.314;8.910;2022-07-17T08:15:19;26.00;97.90
30308;DHT22;17114;52.314;8.910;2022-07-17T08:17:47;25.90;97.60
30308;DHT22;17114;52.314;8.910;2022-07-17T08:20:15;25.40;96.60
30308;DHT22;17114;52.314;8.910;2022-07-17T08:22:43;25.00;97.00
30308;DHT22;17114;52.314;8.910;2022-07-17T08:25:30;25.10;99.30
30308;DHT22;17114;52.314;8.910;2022-07-17T08:27:58;25.30;97.80
30308;DHT22;17114;52.314;8.910;2022-07-17T08:30:26;25.50;99.20
30308;DHT22;17114;52.314;8.910;2022-07-17T08:32:53;25.60;98.20
30308;DHT22;17114;52.314;8.910;2022-07-17T08:35:20;26.10;97.90
30308;DHT22;17114;52.314;8.910;2022-07-17T08:37:50;26.50;95.50
30308;DHT22;17114;52.314;8.910;2022-07-17T08:40:21;26.50;95.30
30308;DHT22;17114;52.314;8.910;2022-07-17T08:42:49;26.50;95.30
30308;DHT22;17114;52.314;8.910;2022-07-17T08:45:17;26.80;95.30
30308;DHT22;17114;52.314;8.910;2022-07-17T08:47:45;27.10;95.10
30308;DHT22;17114;52.314;8.910;2022-07-17T08:50:13;27.00;94.70
30308;DHT22;17114;52.314;8.910;2022-07-17T08:52:41;26.60;94.80
30308;DHT22;17114;52.314;8.910;2022-07-17T08:55:13;26.50;95.90
30308;DHT22;17114;52.314;8.910;2022-07-17T08:57:43;26.20;94.40
30308;DHT22;17114;52.314;8.910;2022-07-17T09:00:15;26.00;94.30
30308;DHT22;17114;52.314;8.910;2022-07-17T09:05:32;26.00;94.80
30308;DHT22;17114;52.314;8.910;2022-07-17T09:08:00;26.10;93.70
30308;DHT22;17114;52.314;8.910;2022-07-17T09:10:47;26.10;95.10
30308;DHT22;17114;52.314;8.910;2022-07-17T09:13:16;26.30;93.80
30308;DHT22;17114;52.314;8.910;2022-07-17T09:15:44;26.00;94.10
30308;DHT22;17114;52.314;8.910;2022-07-17T09:18:12;25.90;94.20
30308;DHT22;17114;52.314;8.910;2022-07-17T09:21:05;25.80;93.90
30308;DHT22;17114;52.314;8.910;2022-07-17T09:23:32;26.10;94.60
30308;DHT22;17114;52.314;8.910;2022-07-17T09:26:04;26.30;95.30
30308;DHT22;17114;52.314;8.910;2022-07-17T09:28:32;26.60;94.90
30308;DHT22;17114;52.314;8.910;2022-07-17T09:30:59;26.50;93.20
30308;DHT22;17114;52.314;8.910;2022-07-17T09:33:27;26.50;92.00
30308;DHT22;17114;52.314;8.910;2022-07-17T09:35:57;26.30;90.70
30308;DHT22;17114;52.314;8.910;2022-07-17T09:38:34;26.40;93.50
30308;DHT22;17114;52.314;8.910;2022-07-17T09:41:06;26.60;92.00
30308;DHT22;17114;52.314;8.910;2022-07-17T09:43:42;27.20;92.70
30308;DHT22;17114;52.314;8.910;2022-07-17T09:46:29;27.20;91.60
30308;DHT22;17114;52.314;8.910;2022-07-17T09:49:03;26.70;90.60
30308;DHT22;17114;52.314;8.910;2022-07-17T09:51:35;26.80;92.70
30308;DHT22;17114;52.314;8.910;2022-07-17T09:54:08;26.70;91.30
30308;DHT22;17114;52.314;8.910;2022-07-17T09:56:37;27.00;91.40
30308;DHT22;17114;52.314;8.910;2022-07-17T09:59:10;27.00;91.30
30308;DHT22;17114;52.314;8.910;2022-07-17T10:01:42;26.90;88.10
30308;DHT22;17114;52.314;8.910;2022-07-17T10:04:11;26.80;87.70
30308;DHT22;17114;52.314;8.910;2022-07-17T10:06:38;26.80;91.10
30308;DHT22;17114;52.314;8.910;2022-07-17T10:09:06;27.00;90.10
30308;DHT22;17114;52.314;8.910;2022-07-17T10:11:36;27.00;90.20
30308;DHT22;17114;52.314;8.910;2022-07-17T10:14:13;26.80;89.60
30308;DHT22;17114;52.314;8.910;2022-07-17T10:16:41;26.80;90.10
30308;DHT22;17114;52.314;8.910;2022-07-17T10:19:22;26.60;86.60
30308;DHT22;17114;52.314;8.910;2022-07-17T10:21:58;26.70;88.80
30308;DHT22;17114;52.314;8.910;2022-07-17T10:24:26;26.90;86.70
30308;DHT22;17114;52.314;8.910;2022-07-17T10:26:54;27.00;86.30
30308;DHT22;17114;52.314;8.910;2022-07-17T10:29:34;27.20;88.30
30308;DHT22;17114;52.314;8.910;2022-07-17T10:32:17;27.30;85.00
30308;DHT22;17114;52.314;8.910;2022-07-17T10:34:45;27.40;85.80
30308;DHT22;17114;52.314;8.910;2022-07-17T10:37:18;27.30;83.80
30308;DHT22;17114;52.314;8.910;2022-07-17T10:45:10;27.30;86.70
30308;DHT22;17114;52.314;8.910;2022-07-17T10:50:38;27.30;84.10
30308;DHT22;17114;52.314;8.910;2022-07-17T10:55:55;27.40;84.70
30308;DHT22;17114;52.314;8.910;2022-07-17T10:58:30;27.40;84.40
30308;DHT22;17114;52.314;8.910;2022-07-17T11:04:05;27.20;81.60
30308;DHT22;17114;52.314;8.910;2022-07-17T11:06:33;27.20;82.80
30308;DHT22;17114;52.314;8.910;2022-07-17T11:09:10;27.10;82.80
30308;DHT22;17114;52.314;8.910;2022-07-17T11:14:18;27.30;85.80
30308;DHT22;17114;52.314;8.910;2022-07-17T11:16:48;27.50;80.40
30308;DHT22;17114;52.314;8.910;2022-07-17T11:21:55;27.70;78.90
30308;DHT22;17114;52.314;8.910;2022-07-17T11:24:24;27.30;81.30
30308;DHT22;17114;52.314;8.910;2022-07-17T11:26:52;27.40;81.80
30308;DHT22;17114;52.314;8.910;2022-07-17T11:29:20;27.60;81.70
30308;DHT22;17114;52.314;8.910;2022-07-17T11:31:55;27.70;81.20
30308;DHT22;17114;52.314;8.910;2022-07-17T11:34:25;27.80;81.20
30308;DHT22;17114;52.314;8.910;2022-07-17T11:37:03;28.00;82.90
30308;DHT22;17114;52.314;8.910;2022-07-17T11:39:43;28.50;79.10
30308;DHT22;17114;52.314;8.910;2022-07-17T11:42:13;28.60;79.20
30308;DHT22;17114;52.314;8.910;2022-07-17T11:44:41;28.40;78.10
30308;DHT22;17114;52.314;8.910;2022-07-17T11:47:11;28.00;76.30
30308;DHT22;17114;52.314;8.910;2022-07-17T11:49:39;27.70;75.30
30308;DHT22;17114;52.314;8.910;2022-07-17T11:52:16;27.90;74.90
30308;DHT22;17114;52.314;8.910;2022-07-17T11:54:50;27.80;76.80
30308;DHT22;17114;52.314;8.910;2022-07-17T11:57:18;27.70;76.50
30308;DHT22;17114;52.314;8.910;2022-07-17T11:59:46;27.70;75.60
30308;DHT22;17114;52.314;8.910;2022-07-17T12:05:07;27.70;77.60
30308;DHT22;17114;52.314;8.910;2022-07-17T12:07:47;27.80;75.90
30308;DHT22;17114;52.314;8.910;2022-07-17T12:10:22;27.90;73.30
30308;DHT22;17114;52.314;8.910;2022-07-17T12:13:02;27.90;74.70
30308;DHT22;17114;52.314;8.910;2022-07-17T12:15:43;27.80;73.10
30308;DHT22;17114;52.314;8.910;2022-07-17T12:18:29;27.80;74.30
30308;DHT22;17114;52.314;8.910;2022-07-17T12:20:58;27.80;73.00
30308;DHT22;17114;52.314;8.910;2022-07-17T12:23:39;27.80;70.60
30308;DHT22;17114;52.314;8.910;2022-07-17T12:26:14;27.90;73.50
30308;DHT22;17114;52.314;8.910;2022-07-17T12:28:45;27.80;71.20
30308;DHT22;17114;52.314;8.910;2022-07-17T12:31:12;27.70;71.80
30308;DHT22;17114;52.314;8.910;2022-07-17T12:33:41;27.70;71.40
30308;DHT22;17114;52.314;8.910;2022-07-17T12:36:08;27.70;73.50
30308;DHT22;17114;52.314;8.910;2022-07-17T12:38:36;27.70;72.00
30308;DHT22;17114;52.314;8.910;2022-07-17T12:41:03;27.80;65.30
30308;DHT22;17114;52.314;8.910;2022-07-17T12:43:31;27.70;68.20
30308;DHT22;17114;52.314;8.910;2022-07-17T12:45:58;27.40;65.50
30308;DHT22;17114;52.314;8.910;2022-07-17T12:48:34;27.20;66.20
30308;DHT22;17114;52.314;8.910;2022-07-17T12:51:03;27.10;66.00
30308;DHT22;17114;52.314;8.910;2022-07-17T12:53:30;26.90;70.00
30308;DHT22;17114;52.314;8.910;2022-07-17T12:55:56;27.00;69.90
30308;DHT22;17114;52.314;8.910;2022-07-17T12:58:23;26.90;67.00
30308;DHT22;17114;52.314;8.910;2022-07-17T13:00:50;26.90;69.10
30308;DHT22;17114;52.314;8.910;2022-07-17T13:03:17;27.00;67.80
30308;DHT22;17114;52.314;8.910;2022-07-17T13:05:44;27.10;69.90
30308;DHT22;17114;52.314;8.910;2022-07-17T13:08:11;27.20;71.10
30308;DHT22;17114;52.314;8.910;2022-07-17T13:10:38;27.40;71.30
30308;DHT22;17114;52.314;8.910;2022-07-17T13:13:05;27.60;70.70
30308;DHT22;17114;52.314;8.910;2022-07-17T13:15:32;27.60;65.50
30308;DHT22;17114;52.314;8.910;2022-07-17T13:18:00;27.50;60.50
30308;DHT22;17114;52.314;8.910;2022-07-17T13:20:28;27.40;65.80
30308;DHT22;17114;52.314;8.910;2022-07-17T13:22:55;27.40;68.60
30308;DHT22;17114;52.314;8.910;2022-07-17T13:25:23;27.30;65.80
30308;DHT22;17114;52.314;8.910;2022-07-17T13:27:50;27.30;66.40
30308;DHT22;17114;52.314;8.910;2022-07-17T13:30:17;27.30;66.90
30308;DHT22;17114;52.314;8.910;2022-07-17T13:32:44;27.30;67.70
30308;DHT22;17114;52.314;8.910;2022-07-17T13:35:11;27.30;68.50
30308;DHT22;17114;52.314;8.910;2022-07-17T13:37:38;27.40;70.30
30308;DHT22;17114;52.314;8.910;2022-07-17T13:40:06;27.20;68.10
30308;DHT22;17114;52.314;8.910;2022-07-17T13:42:33;27.00;66.90
30308;DHT22;17114;52.314;8.910;2022-07-17T13:45:00;26.70;67.70
30308;DHT22;17114;52.314;8.910;2022-07-17T13:47:27;26.50;69.50
30308;DHT22;17114;52.314;8.910;2022-07-17T13:49:55;26.20;67.30
30308;DHT22;17114;52.314;8.910;2022-07-17T13:52:23;26.20;67.00
30308;DHT22;17114;52.314;8.910;2022-07-17T13:54:49;26.10;67.30
30308;DHT22;17114;52.314;8.910;2022-07-17T13:57:16;26.20;67.70
30308;DHT22;17114;52.314;8.910;2022-07-17T13:59:43;26.40;68.30
30308;DHT22;17114;52.314;8.910;2022-07-17T14:02:10;26.40;68.70
30308;DHT22;17114;52.314;8.910;2022-07-17T14:04:37;26.60;70.60
30308;DHT22;17114;52.314;8.910;2022-07-17T14:07:04;26.60;67.70
30308;DHT22;17114;52.314;8.910;2022-07-17T14:09:31;26.50;65.70
30308;DHT22;17114;52.314;8.910;2022-07-17T14:11:59;26.50;65.90
30308;DHT22;17114;52.314;8.910;2022-07-17T14:14:26;26.20;66.60
30308;DHT22;17114;52.314;8.910;2022-07-17T14:16:53;26.20;67.70
30308;DHT22;17114;52.314;8.910;2022-07-17T14:19:20;26.20;65.90
30308;DHT22;17114;52.314;8.910;2022-07-17T14:21:47;26.10;66.30
30308;DHT22;17114;52.314;8.910;2022-07-17T14:24:14;26.00;65.50
30308;DHT22;17114;52.314;8.910;2022-07-17T14:26:41;26.00;67.80
30308;DHT22;17114;52.314;8.910;2022-07-17T14:29:14;26.10;68.00
30308;DHT22;17114;52.314;8.910;2022-07-17T14:31:41;26.10;66.60
30308;DHT22;17114;52.314;8.910;2022-07-17T14:34:11;26.10;68.20
30308;DHT22;17114;52.314;8.910;2022-07-17T14:36:39;26.10;66.80
30308;DHT22;17114;52.314;8.910;2022-07-17T14:39:07;26.10;66.90
30308;DHT22;17114;52.314;8.910;2022-07-17T14:41:33;26.10;65.60
30308;DHT22;17114;52.314;8.910;2022-07-17T14:44:00;26.10;64.30
30308;DHT22;17114;52.314;8.910;2022-07-17T14:46:27;26.00;65.00
30308;DHT22;17114;52.314;8.910;2022-07-17T14:48:54;25.90;66.70
30308;DHT22;17114;52.314;8.910;2022-07-17T14:51:21;25.90;67.60
30308;DHT22;17114;52.314;8.910;2022-07-17T14:53:49;26.00;67.30
30308;DHT22;17114;52.314;8.910;2022-07-17T14:56:16;26.10;64.90
30308;DHT22;17114;52.314;8.910;2022-07-17T14:58:45;26.10;65.10
30308;DHT22;17114;52.314;8.910;2022-07-17T15:01:12;26.10;65.10
30308;DHT22;17114;52.314;8.910;2022-07-17T15:03:39;26.20;66.40
30308;DHT22;17114;52.314;8.910;2022-07-17T15:06:06;26.10;63.50
30308;DHT22;17114;52.314;8.910;2022-07-17T15:08:33;26.00;62.50
30308;DHT22;17114;52.314;8.910;2022-07-17T15:11:01;25.90;63.10
30308;DHT22;17114;52.314;8.910;2022-07-17T15:13:28;25.70;63.80
30308;DHT22;17114;52.314;8.910;2022-07-17T15:15:55;25.70;63.10
30308;DHT22;17114;52.314;8.910;2022-07-17T15:18:22;25.60;65.50
30308;DHT22;17114;52.314;8.910;2022-07-17T15:20:49;25.60;65.80
30308;DHT22;17114;52.314;8.910;2022-07-17T15:23:16;25.60;65.20
30308;DHT22;17114;52.314;8.910;2022-07-17T15:25:43;25.60;66.10
30308;DHT22;17114;52.314;8.910;2022-07-17T15:28:10;25.70;66.50
30308;DHT22;17114;52.314;8.910;2022-07-17T15:30:37;25.70;67.20
30308;DHT22;17114;52.314;8.910;2022-07-17T15:33:03;25.80;65.00
30308;DHT22;17114;52.314;8.910;2022-07-17T15:35:30;25.70;66.10
30308;DHT22;17114;52.314;8.910;2022-07-17T15:37:57;25.70;66.30
30308;DHT22;17114;52.314;8.910;2022-07-17T15:40:25;25.70;65.10
30308;DHT22;17114;52.314;8.910;2022-07-17T15:42:52;25.60;64.20
30308;DHT22;17114;52.314;8.910;2022-07-17T15:45:19;25.40;65.80
30308;DHT22;17114;52.314;8.910;2022-07-17T15:47:47;25.30;61.90
30308;DHT22;17114;52.314;8.910;2022-07-17T15:50:14;25.20;62.20
30308;DHT22;17114;52.314;8.910;2022-07-17T15:52:42;25.20;63.70
30308;DHT22;17114;52.314;8.910;2022-07-17T15:55:09;25.20;61.80
30308;DHT22;17114;52.314;8.910;2022-07-17T15:57:36;25.20;61.40
30308;DHT22;17114;52.314;8.910;2022-07-17T16:00:07;25.10;59.20
30308;DHT22;17114;52.314;8.910;2022-07-17T16:02:35;25.00;59.10
30308;DHT22;17114;52.314;8.910;2022-07-17T16:05:02;24.90;59.10
30308;DHT22;17114;52.314;8.910;2022-07-17T16:07:29;24.80;57.50